Time;durP1;ratioP1;P1;durP2;ratioP2;P2;SDS_P1;SDS_P2;PMS_P1;PMS_P2;Temp;Humidity;BMP_temperature;BMP_pressure;BME280_temperature;BME280_humidity;BME280_pressure;Samples;Min_cycle;Max_cycle;Signal;HPM_P1;HPM_P2
2021/05/01 00:02:01;;;;;;;13.40;6.83;;;;;;;14.69;69.89;100169.73;1807204;79;21382;-60
2021/05/01 00:05:08;;;;;;;10.38;7.12;;;;;;;14.65;70.05;100158.27;1807055;78;21200;-58
2021/05/01 00:08:13;;;;;;;10.10;6.85;;;;;;;14.63;70.13;100165.06;1807443;79;21756;-60
2021/05/01 00:11:22;;;;;;;9.18;6.08;;;;;;;14.62;70.25;100171.09;1806791;79;21351;-59
2021/05/01 00:14:28;;;;;;;14.47;6.70;;;;;;;14.60;70.35;100175.13;1807254;79;21852;-58
2021/05/01 00:17:33;;;;;;;8.93;6.72;;;;;;;14.56;70.40;100179.33;1805807;79;21197;-59
2021/05/01 00:20:39;;;;;;;10.10;6.33;;;;;;;14.52;70.48;100185.80;1788430;80;21194;-59
2021/05/01 00:23:44;;;;;;;9.78;6.75;;;;;;;14.50;70.56;100187.05;1788395;80;21348;-59
2021/05/01 00:26:50;;;;;;;9.43;6.53;;;;;;;14.47;70.63;100188.84;1788541;80;21511;-59
2021/05/01 00:29:55;;;;;;;11.33;7.25;;;;;;;14.43;70.75;100183.44;1788638;80;21363;-60
2021/05/01 00:33:01;;;;;;;9.60;6.83;;;;;;;14.39;70.87;100191.25;1788639;80;21170;-59
2021/05/01 00:36:06;;;;;;;9.40;6.92;;;;;;;14.36;71.01;100199.06;1788410;80;21453;-59
2021/05/01 00:39:13;;;;;;;11.88;7.05;;;;;;;14.31;71.15;100209.31;1788481;80;21351;-59
2021/05/01 00:42:18;;;;;;;13.30;7.12;;;;;;;14.26;71.28;100204.95;1788484;80;21832;-60
2021/05/01 00:45:23;;;;;;;11.38;7.53;;;;;;;14.22;71.48;100200.02;1788547;80;21359;-59
2021/05/01 00:48:28;;;;;;;14.40;7.45;;;;;;;14.19;71.70;100201.81;1788647;80;21407;-60
2021/05/01 00:51:33;;;;;;;10.95;7.67;;;;;;;14.15;71.85;100203.25;1788358;80;21359;-61
2021/05/01 00:54:38;;;;;;;12.30;7.85;;;;;;;14.13;72.00;100205.38;1788457;80;21342;-59
2021/05/01 00:57:44;;;;;;;12.53;8.40;;;;;;;14.11;72.18;100207.48;1788566;80;21351;-60
2021/05/01 01:04:05;;;;;;;11.63;7.97;;;;;;;14.04;72.51;100220.33;1788474;80;21932;-59
2021/05/01 01:07:11;;;;;;;13.83;7.70;;;;;;;13.97;72.73;100220.29;1788557;80;21315;-59
2021/05/01 01:10:17;;;;;;;11.10;7.83;;;;;;;13.92;72.99;100221.41;1788495;80;21347;-60
2021/05/01 01:13:22;;;;;;;9.48;7.30;;;;;;;13.88;73.24;100224.25;1788459;80;21210;-60
2021/05/01 01:16:29;;;;;;;10.55;7.22;;;;;;;13.83;73.56;100221.25;1788415;80;21363;-60
2021/05/01 01:19:38;;;;;;;13.05;7.50;;;;;;;13.80;73.85;100224.92;1789022;80;21402;-59
2021/05/01 01:22:43;;;;;;;13.48;7.40;;;;;;;13.77;74.09;100226.70;1798639;79;21378;-61
2021/05/01 01:25:48;;;;;;;11.15;7.78;;;;;;;13.74;74.35;100232.61;1798309;78;21386;-59
2021/05/01 01:28:55;;;;;;;11.97;7.55;;;;;;;13.71;74.57;100237.14;1798256;79;21343;-59
2021/05/01 01:32:00;;;;;;;10.98;6.97;;;;;;;13.69;74.80;100241.98;1791899;80;21329;-59
2021/05/01 01:35:08;;;;;;;11.88;7.00;;;;;;;13.67;75.02;100240.80;1798546;78;21253;-59
2021/05/01 01:38:13;;;;;;;11.93;7.67;;;;;;;13.66;75.21;100234.13;1798632;80;21208;-61
2021/05/01 01:41:20;;;;;;;9.78;7.12;;;;;;;13.67;75.37;100242.73;1799031;80;21262;-60
2021/05/01 01:44:27;;;;;;;10.82;7.17;;;;;;;13.67;75.50;100239.97;1798844;78;21695;-60
2021/05/01 01:47:34;;;;;;;9.50;7.10;;;;;;;13.67;75.64;100239.43;1798821;80;21204;-60
2021/05/01 01:50:40;;;;;;;11.65;7.80;;;;;;;13.68;75.74;100245.79;1798603;80;21208;-60
2021/05/01 01:53:46;;;;;;;11.60;8.43;;;;;;;13.68;75.83;100240.29;1798704;80;21204;-60
2021/05/01 01:56:52;;;;;;;8.58;7.35;;;;;;;13.67;75.88;100235.84;1798605;80;21343;-59
2021/05/01 01:59:58;;;;;;;15.38;8.15;;;;;;;13.66;75.94;100239.63;1798660;80;21558;-59
2021/05/01 02:03:06;;;;;;;12.35;8.03;;;;;;;13.63;75.96;100237.28;1798379;80;21168;-60
2021/05/01 02:06:12;;;;;;;11.38;7.50;;;;;;;13.59;76.00;100234.62;1798750;80;21888;-60
2021/05/01 02:09:18;;;;;;;10.65;7.47;;;;;;;13.54;76.06;100232.47;1798807;80;21729;-59
2021/05/01 02:12:23;;;;;;;11.00;7.87;;;;;;;13.50;76.11;100244.37;1798502;80;21224;-60
2021/05/01 02:15:30;;;;;;;10.50;8.05;;;;;;;13.47;76.17;100245.30;1798523;78;21212;-60
2021/05/01 02:18:37;;;;;;;10.35;7.95;;;;;;;13.42;76.24;100255.52;1798529;80;21323;-61
2021/05/01 02:21:42;;;;;;;11.15;7.62;;;;;;;13.38;76.35;100261.06;1790782;79;21189;-60
2021/05/01 02:24:47;;;;;;;9.53;7.28;;;;;;;13.31;76.42;100273.91;1788537;80;21363;-60
2021/05/01 02:27:53;;;;;;;11.55;7.95;;;;;;;13.27;76.50;100281.37;1788576;80;21348;-60
2021/05/01 02:30:58;;;;;;;14.83;8.43;;;;;;;13.22;76.56;100276.44;1788563;80;21288;-60
2021/05/01 02:34:03;;;;;;;14.80;7.85;;;;;;;13.17;76.63;100280.33;1788530;80;21714;-60
2021/05/01 02:37:10;;;;;;;12.88;8.78;;;;;;;13.14;76.76;100286.73;1788649;80;21336;-60
2021/05/01 02:40:16;;;;;;;14.55;8.65;;;;;;;13.11;76.89;100283.83;1788446;80;21861;-60
2021/05/01 02:43:21;;;;;;;11.73;8.13;;;;;;;13.09;76.98;100287.83;1788479;80;21236;-59
2021/05/01 02:46:26;;;;;;;15.68;9.35;;;;;;;13.09;77.10;100292.81;1788568;80;21197;-59
2021/05/01 02:49:32;;;;;;;11.88;8.40;;;;;;;13.06;77.18;100297.33;1788494;80;21233;-59
2021/05/01 02:52:37;;;;;;;11.75;8.28;;;;;;;13.04;77.27;100300.78;1788432;80;21504;-59
2021/05/01 02:55:44;;;;;;;15.58;10.70;;;;;;;13.02;77.38;100301.48;1788569;80;21323;-59
2021/05/01 02:58:49;;;;;;;36.42;21.80;;;;;;;13.00;77.47;100297.21;1788528;80;21225;-60
2021/05/01 03:01:55;;;;;;;23.22;11.97;;;;;;;12.98;77.51;100302.91;1788545;80;21186;-60
2021/05/01 03:05:00;;;;;;;12.40;8.60;;;;;;;12.94;77.53;100308.44;1788685;80;21244;-60
2021/05/01 03:08:06;;;;;;;11.95;8.48;;;;;;;12.91;77.63;100310.20;1788565;80;21844;-60
2021/05/01 03:11:11;;;;;;;12.90;9.25;;;;;;;12.91;77.67;100317.58;1788527;80;21778;-61
2021/05/01 03:14:16;;;;;;;22.22;15.83;;;;;;;12.89;77.59;100321.89;1788534;80;21343;-59
2021/05/01 03:17:22;;;;;;;21.45;14.83;;;;;;;12.88;77.65;100326.21;1788557;80;21355;-60
2021/05/01 03:20:27;;;;;;;13.60;11.22;;;;;;;12.88;77.68;100329.82;1788431;80;21351;-60
2021/05/01 03:23:34;;;;;;;15.43;11.50;;;;;;;12.90;77.67;100331.86;1788113;79;21367;-59
2021/05/01 03:26:39;;;;;;;16.25;12.43;;;;;;;12.94;77.66;100341.41;1788540;80;21205;-60
2021/05/01 03:29:45;;;;;;;16.37;11.15;;;;;;;12.97;77.61;100338.82;1788448;80;21229;-59
2021/05/01 03:32:52;;;;;;;10.55;8.85;;;;;;;13.01;77.57;100338.27;1788476;80;21359;-60
2021/05/01 03:35:57;;;;;;;9.55;8.20;;;;;;;13.05;77.53;100342.32;1788469;80;21374;-60
2021/05/01 03:39:03;;;;;;;15.55;10.10;;;;;;;13.11;77.45;100351.70;1788522;80;21323;-59
2021/05/01 03:42:08;;;;;;;15.23;9.03;;;;;;;13.15;77.35;100334.63;1788537;80;21336;-59
2021/05/01 03:45:14;;;;;;;12.70;9.65;;;;;;;13.20;77.23;100345.04;1788538;80;21423;-59
2021/05/01 03:48:19;;;;;;;15.20;9.20;;;;;;;13.24;77.14;100358.20;1788569;80;21387;-60
2021/05/01 03:51:26;;;;;;;13.65;9.88;;;;;;;13.30;77.05;100371.16;1788463;80;21426;-60
2021/05/01 03:54:33;;;;;;;12.63;9.75;;;;;;;13.36;76.98;100366.30;1788434;80;21474;-60
2021/05/01 03:57:38;;;;;;;16.10;9.58;;;;;;;13.40;76.98;100366.22;1788514;80;21335;-60
2021/05/01 04:00:43;;;;;;;13.75;9.98;;;;;;;13.48;77.04;100361.11;1788507;80;21363;-60
2021/05/01 04:03:48;;;;;;;16.85;8.88;;;;;;;13.54;77.04;100365.31;1788503;80;21249;-60
2021/05/01 04:06:55;;;;;;;11.97;9.50;;;;;;;13.64;77.09;100365.53;1788626;80;21344;-59
2021/05/01 04:10:01;;;;;;;14.55;9.85;;;;;;;13.71;77.15;100359.05;1788443;80;21366;-61
2021/05/01 04:13:06;;;;;;;15.55;10.20;;;;;;;13.80;77.23;100363.36;1787930;80;21347;-60
2021/05/01 04:16:12;;;;;;;20.82;15.32;;;;;;;13.88;77.54;100367.87;1788286;80;21907;-60
2021/05/01 04:19:18;;;;;;;19.95;15.45;;;;;;;13.96;77.69;100377.36;1788503;80;21332;-61
2021/05/01 04:22:26;;;;;;;15.85;10.58;;;;;;;14.04;77.79;100368.97;1788517;80;21371;-60
2021/05/01 04:25:32;;;;;;;17.50;10.82;;;;;;;14.14;77.83;100366.23;1788436;80;21344;-61
2021/05/01 04:28:38;;;;;;;13.68;10.85;;;;;;;14.27;77.83;100366.34;1788536;80;21332;-60
2021/05/01 04:31:43;;;;;;;19.40;11.75;;;;;;;14.41;77.87;100369.52;1788480;80;21343;-61
2021/05/01 04:34:49;;;;;;;15.23;11.68;;;;;;;14.55;77.83;100380.12;1788249;80;21363;-61
2021/05/01 04:37:55;;;;;;;13.95;11.25;;;;;;;14.73;77.86;100403.89;1788503;80;21217;-59
2021/05/01 04:41:01;;;;;;;14.85;11.83;;;;;;;14.87;77.92;100400.16;1788493;80;21276;-61
2021/05/01 04:44:07;;;;;;;17.80;11.95;;;;;;;15.04;77.81;100401.52;1788395;80;21359;-60
2021/05/01 04:47:14;;;;;;;13.90;10.50;;;;;;;15.17;77.58;100391.94;1788464;80;21380;-61
2021/05/01 04:50:20;;;;;;;15.15;11.60;;;;;;;15.28;77.16;100401.00;1788268;80;21197;-61
2021/05/01 04:53:25;;;;;;;15.00;11.68;;;;;;;15.36;76.82;100403.59;1788038;80;21225;-60
2021/05/01 04:56:31;;;;;;;12.65;10.20;;;;;;;15.44;76.58;100403.44;1788442;80;21738;-62
2021/05/01 04:59:36;;;;;;;14.55;12.07;;;;;;;15.54;76.17;100401.12;1788136;80;21347;-61
2021/05/01 05:02:41;;;;;;;15.23;10.90;;;;;;;15.57;75.85;100407.59;1787987;80;21197;-61
2021/05/01 05:05:48;;;;;;;14.03;11.88;;;;;;;15.62;75.75;100407.83;1788249;80;21876;-60
2021/05/01 05:08:54;;;;;;;16.17;11.38;;;;;;;15.71;75.63;100420.41;1788519;80;21407;-61
2021/05/01 05:12:03;;;;;;;14.00;10.95;;;;;;;15.79;75.04;100424.33;1788511;80;21335;-61
2021/05/01 05:15:11;;;;;;;13.80;11.33;;;;;;;15.84;74.88;100424.56;1788387;80;21726;-61
2021/05/01 05:18:17;;;;;;;14.98;11.00;;;;;;;15.95;74.55;100437.75;1788560;80;21327;-61
2021/05/01 05:21:23;;;;;;;12.68;10.38;;;;;;;16.02;74.08;100446.91;1788508;80;21229;-60
2021/05/01 05:24:30;;;;;;;14.80;11.10;;;;;;;16.10;73.81;100438.95;1788786;78;21193;-61
2021/05/01 05:27:36;;;;;;;13.08;11.15;;;;;;;16.16;73.34;100443.11;1788502;80;21668;-61
2021/05/01 05:30:41;;;;;;;18.60;11.22;;;;;;;16.16;72.91;100445.87;1788460;80;21845;-60
2021/05/01 05:33:47;;;;;;;11.75;10.15;;;;;;;16.19;72.93;100445.45;1788397;80;21394;-61
2021/05/01 05:36:54;;;;;;;14.83;11.57;;;;;;;16.28;72.68;100446.93;1788379;80;21356;-61
2021/05/01 05:40:00;;;;;;;15.85;11.18;;;;;;;16.30;72.57;100445.34;1788346;80;21363;-60
2021/05/01 05:43:08;;;;;;;12.25;10.35;;;;;;;16.37;72.38;100454.50;1788322;80;21221;-61
2021/05/01 05:46:16;;;;;;;14.63;10.20;;;;;;;16.39;72.20;100451.83;1788439;80;21217;-60
2021/05/01 05:49:22;;;;;;;13.03;10.28;;;;;;;16.40;72.18;100461.84;1788412;80;21189;-62
2021/05/01 05:52:28;;;;;;;12.43;10.25;;;;;;;16.37;71.69;100478.84;1788435;80;21193;-60
2021/05/01 05:55:35;;;;;;;10.45;8.80;;;;;;;16.27;71.61;100478.39;1788371;79;21209;-62
2021/05/01 05:58:42;;;;;;;11.57;9.60;;;;;;;16.26;71.79;100487.75;1788450;80;21371;-61
2021/05/01 06:01:51;;;;;;;15.85;9.63;;;;;;;16.24;71.50;100487.11;1788352;80;21351;-63
2021/05/01 06:05:12;;;;;;;12.07;9.15;;;;;;;16.25;71.52;100490.17;1788360;80;21364;-61
2021/05/01 06:08:17;;;;;;;18.65;10.80;;;;;;;16.31;71.29;100493.51;1788484;80;21233;-61
2021/05/01 06:11:24;;;;;;;10.58;8.18;;;;;;;16.40;71.20;100477.56;1788467;80;21363;-60
2021/05/01 06:14:30;;;;;;;9.85;8.23;;;;;;;16.44;70.56;100492.67;1772139;80;21233;-60
2021/05/01 06:17:37;;;;;;;12.80;9.90;;;;;;;16.43;70.36;100490.95;1788502;80;21568;-61
2021/05/01 06:20:44;;;;;;;13.40;8.80;;;;;;;16.34;70.41;100497.23;1759831;80;21235;-61
2021/05/01 06:23:50;;;;;;;11.48;9.15;;;;;;;16.33;70.49;100502.41;1743158;81;21231;-62
2021/05/01 06:26:57;;;;;;;9.70;8.28;;;;;;;16.41;70.46;100491.16;1761839;81;21338;-61
2021/05/01 06:30:07;;;;;;;11.08;9.15;;;;;;;16.54;70.21;100502.79;1755471;81;21247;-60
2021/05/01 06:33:16;;;;;;;12.23;8.63;;;;;;;16.69;69.88;100507.59;1740475;81;21404;-60
2021/05/01 06:36:24;;;;;;;10.03;8.78;;;;;;;16.82;69.12;100514.52;1755928;81;21589;-62
2021/05/01 06:39:34;;;;;;;11.05;8.25;;;;;;;16.88;68.75;100524.72;1763384;81;21227;-62
2021/05/01 06:42:57;;;;;;;12.00;8.53;;;;;;;16.92;68.35;100522.39;1755666;81;21542;-61
2021/05/01 06:46:01;;;;;;;10.25;8.58;;;;;;;17.00;68.36;100524.94;1755773;81;21258;-63
2021/05/01 06:49:08;;;;;;;9.98;8.48;;;;;;;17.08;67.92;100523.30;1756223;81;21235;-62
2021/05/01 06:52:15;;;;;;;8.98;7.72;;;;;;;16.98;67.75;100528.44;1755611;81;21322;-61
2021/05/01 06:55:25;;;;;;;15.40;8.80;;;;;;;16.90;67.75;100525.89;1756193;81;21242;-59
2021/05/01 06:58:31;;;;;;;10.03;7.85;;;;;;;16.84;68.14;100519.84;1755471;81;21227;-61
2021/05/01 07:01:37;;;;;;;8.85;7.95;;;;;;;16.81;68.73;100523.03;1763153;81;21534;-61
2021/05/01 07:04:44;;;;;;;13.45;8.25;;;;;;;16.82;68.92;100526.10;1755554;81;21767;-61
2021/05/01 07:07:49;;;;;;;8.85;7.85;;;;;;;16.82;68.84;100523.34;1752082;81;21347;-60
2021/05/01 07:10:56;;;;;;;9.48;7.40;;;;;;;16.81;68.80;100524.41;1726262;83;21273;-61
2021/05/01 07:14:02;;;;;;;7.85;6.00;;;;;;;16.81;68.95;100532.70;1787927;80;21328;-61
2021/05/01 07:17:08;;;;;;;9.20;6.70;;;;;;;16.86;68.85;100525.98;1788392;80;21253;-61
2021/05/01 07:20:18;;;;;;;8.68;6.10;;;;;;;16.85;68.71;100526.53;1788509;80;21380;-62
2021/05/01 07:23:24;;;;;;;8.33;6.03;;;;;;;16.91;68.44;100530.34;1788355;80;21379;-62
2021/05/01 07:26:31;;;;;;;6.83;5.20;;;;;;;16.96;67.95;100530.56;1787134;80;21452;-60
2021/05/01 07:29:43;;;;;;;8.45;6.00;;;;;;;17.01;67.72;100526.62;1788451;80;21351;-61
2021/05/01 07:32:49;;;;;;;7.90;5.67;;;;;;;17.10;67.68;100533.63;1788777;80;21269;-61
2021/05/01 07:35:58;;;;;;;6.87;5.55;;;;;;;17.18;67.67;100539.81;1788362;80;21407;-60
2021/05/01 07:39:04;;;;;;;5.90;5.25;;;;;;;17.21;67.35;100537.98;1788199;80;21370;-62
2021/05/01 07:42:10;;;;;;;5.75;4.72;;;;;;;17.26;67.08;100540.97;1788550;80;21324;-61
2021/05/01 07:45:25;;;;;;;8.05;5.25;;;;;;;17.40;66.90;100542.64;1788663;80;21233;-63
2021/05/01 07:48:27;;;;;;;6.37;5.33;;;;;;;17.45;65.79;100553.09;1791478;79;21886;-62
2021/05/01 07:51:39;;;;;;;5.05;4.17;;;;;;;17.52;65.86;100553.39;1803708;79;21362;-62
2021/05/01 07:54:46;;;;;;;6.45;3.60;;;;;;;17.64;65.66;100556.34;1773763;79;21217;-61
2021/05/01 07:57:52;;;;;;;4.25;3.12;;;;;;;17.70;63.91;100547.16;1793275;79;21477;-60
2021/05/01 08:01:00;;;;;;;4.55;2.80;;;;;;;17.80;62.72;100557.26;1803502;79;21425;-60
2021/05/01 08:04:06;;;;;;;6.65;4.40;;;;;;;17.92;61.84;100551.91;1803595;79;21217;-62
2021/05/01 08:07:11;;;;;;;4.87;3.20;;;;;;;17.97;61.66;100561.23;1799298;79;21205;-60
2021/05/01 08:10:17;;;;;;;4.33;3.30;;;;;;;18.05;60.85;100551.30;1799737;79;21244;-60
2021/05/01 08:13:22;;;;;;;6.17;3.80;;;;;;;18.14;60.32;100541.65;1802500;79;21350;-61
2021/05/01 08:16:27;;;;;;;7.95;4.47;;;;;;;18.25;60.04;100552.03;1803983;79;21390;-60
2021/05/01 08:19:34;;;;;;;5.15;4.20;;;;;;;18.35;59.78;100552.42;1803902;79;21338;-60
2021/05/01 08:22:39;;;;;;;6.28;3.45;;;;;;;18.44;59.37;100551.11;1803597;79;21382;-61
2021/05/01 08:25:46;;;;;;;5.85;3.70;;;;;;;18.52;58.65;100545.86;1788249;79;21351;-60
2021/05/01 08:28:53;;;;;;;6.42;4.03;;;;;;;18.61;58.11;100543.98;1768045;79;21363;-60
2021/05/01 08:31:59;;;;;;;4.53;3.47;;;;;;;18.70;58.17;100557.02;1768511;80;21335;-60
2021/05/01 08:35:06;;;;;;;4.80;2.98;;;;;;;18.70;58.25;100555.11;1769019;80;21204;-60
2021/05/01 08:38:11;;;;;;;3.98;3.35;;;;;;;18.73;56.21;100549.11;1778122;79;21370;-60
2021/05/01 08:41:16;;;;;;;4.37;3.20;;;;;;;18.86;54.87;100560.64;1793217;79;21909;-60
2021/05/01 08:44:22;;;;;;;5.55;3.25;;;;;;;19.02;53.79;100554.53;1768714;80;21182;-61
2021/05/01 08:47:33;;;;;;;4.15;3.15;;;;;;;19.17;53.29;100559.22;1768729;81;21356;-60
2021/05/01 08:50:44;;;;;;;5.90;3.22;;;;;;;19.28;51.78;100548.80;1768813;81;21228;-60
2021/05/01 08:53:52;;;;;;;4.72;3.17;;;;;;;19.42;51.15;100547.58;1769459;80;21528;-60
2021/05/01 08:56:58;;;;;;;4.47;3.10;;;;;;;19.55;50.91;100546.59;1770531;79;21700;-63
2021/05/01 09:00:05;;;;;;;5.75;3.45;;;;;;;19.68;49.67;100553.40;1771857;81;21350;-61
2021/05/01 09:03:12;;;;;;;3.60;3.15;;;;;;;19.76;48.70;100547.51;1772632;79;21190;-62
2021/05/01 09:06:20;;;;;;;3.77;2.92;;;;;;;19.86;47.76;100552.00;1790065;79;21853;-60
2021/05/01 09:09:25;;;;;;;5.67;3.95;;;;;;;19.97;47.93;100542.88;1784691;79;21193;-61
2021/05/01 09:12:50;;;;;;;5.97;3.35;;;;;;;20.12;48.45;100536.39;1797576;79;21844;-61
2021/05/01 09:16:11;;;;;;;5.25;2.35;;;;;;;20.33;47.48;100548.41;1802414;79;21184;-61
2021/05/01 09:19:17;;;;;;;3.17;2.45;;;;;;;20.49;44.56;100551.92;1803372;79;21944;-61
2021/05/01 09:22:23;;;;;;;3.40;2.62;;;;;;;20.56;43.92;100538.25;1803688;79;21394;-60
2021/05/01 09:25:33;;;;;;;3.65;2.50;;;;;;;20.70;44.05;100548.63;1803754;79;21402;-60
2021/05/01 09:28:49;;;;;;;6.15;3.25;;;;;;;20.83;44.06;100548.42;1803083;79;21228;-63
2021/05/01 09:31:57;;;;;;;5.15;2.80;;;;;;;20.97;42.13;100538.80;1803854;79;21358;-60
2021/05/01 09:35:04;;;;;;;19.42;5.58;;;;;;;21.13;41.05;100546.45;1803768;79;21366;-60
2021/05/01 09:38:08;;;;;;;4.40;2.67;;;;;;;21.24;41.74;100541.44;1797156;79;21280;-61
2021/05/01 09:41:28;;;;;;;3.42;2.60;;;;;;;21.40;41.11;100544.03;1783296;79;21368;-61
2021/05/01 09:44:34;;;;;;;6.87;2.42;;;;;;;21.48;40.50;100536.71;1781478;79;21178;-61
2021/05/01 09:47:41;;;;;;;3.45;2.40;;;;;;;21.50;40.78;100530.36;1783620;79;21247;-61
2021/05/01 09:50:48;;;;;;;4.53;2.47;;;;;;;21.59;40.49;100533.92;1778889;79;21352;-61
2021/05/01 09:53:53;;;;;;;3.87;2.67;;;;;;;21.61;39.90;100530.33;1774500;79;21355;-60
2021/05/01 09:57:01;;;;;;;3.75;2.50;;;;;;;21.62;40.11;100533.97;1747717;79;21209;-61
2021/05/01 10:00:07;;;;;;;3.72;2.40;;;;;;;21.53;38.46;100541.84;1794768;79;21362;-61
2021/05/01 10:03:26;;;;;;;3.67;2.35;;;;;;;21.42;38.61;100549.66;1802775;79;21915;-62
2021/05/01 10:06:32;;;;;;;9.30;4.17;;;;;;;21.34;38.14;100547.27;1802971;79;21197;-62
2021/05/01 10:09:46;;;;;;;4.33;3.25;;;;;;;21.28;38.37;100548.77;1776700;79;21895;-61
2021/05/01 10:12:52;;;;;;;3.65;2.60;;;;;;;21.35;37.51;100557.30;1789638;79;21449;-61
2021/05/01 10:15:59;;;;;;;7.95;2.70;;;;;;;21.43;37.37;100556.95;1772248;79;21415;-60
2021/05/01 10:19:16;;;;;;;3.83;2.40;;;;;;;21.48;37.64;100557.07;1771777;81;21324;-63
2021/05/01 10:22:44;;;;;;;4.20;2.72;;;;;;;21.57;36.51;100561.71;1772094;81;21339;-62
2021/05/01 10:25:50;;;;;;;6.45;3.05;;;;;;;21.62;36.07;100557.12;1782583;79;21950;-60
2021/05/01 10:28:59;;;;;;;3.65;2.58;;;;;;;21.67;34.96;100543.31;1780806;78;21213;-60
2021/05/01 10:32:04;;;;;;;5.85;3.17;;;;;;;21.76;35.08;100541.01;1799095;79;21426;-61
2021/05/01 10:35:10;;;;;;;4.53;2.87;;;;;;;21.83;34.97;100539.81;1778660;79;21698;-61
2021/05/01 10:38:17;;;;;;;3.80;2.40;;;;;;;21.98;34.94;100542.91;1792820;79;21236;-62
2021/05/01 10:41:24;;;;;;;4.22;2.72;;;;;;;22.06;34.03;100551.43;1803489;79;21913;-61
2021/05/01 10:44:36;;;;;;;3.87;2.50;;;;;;;22.04;34.19;100543.88;1779225;79;21398;-62
2021/05/01 10:47:37;;;;;;;4.60;3.50;;;;;;;22.11;35.13;100542.64;1768364;80;21216;-61
2021/05/01 10:50:44;;;;;;;9.33;8.05;;;;;;;22.34;35.34;100540.86;1775911;79;21351;-61
2021/05/01 10:53:42;;;;;;;4.58;3.50;;;;;;;22.54;33.72;100544.93;1782085;79;21307;-61
2021/05/01 10:56:51;;;;;;;12.15;9.15;;;;;;;22.73;33.11;100553.93;1777452;79;21328;-60
2021/05/01 11:00:11;;;;;;;7.30;6.30;;;;;;;22.85;32.24;100564.50;1794309;79;21351;-62
2021/05/01 11:03:17;;;;;;;3.77;2.52;;;;;;;22.92;31.62;100559.59;1798646;79;21337;-63
2021/05/01 11:06:31;;;;;;;26.90;22.62;;;;;;;23.02;31.96;100563.97;1769299;79;21436;-62
2021/05/01 11:09:56;;;;;;;10.58;8.35;;;;;;;23.12;31.72;100567.77;1753753;81;21402;-61
2021/05/01 11:13:04;;;;;;;19.37;12.73;;;;;;;23.25;31.10;100558.20;1720371;82;21375;-61
2021/05/01 11:16:13;;;;;;;41.45;16.05;;;;;;;23.45;31.08;100556.63;1788687;79;21267;-61
2021/05/01 11:19:24;;;;;;;9.25;4.67;;;;;;;23.62;30.56;100548.23;1771597;79;21205;-60
2021/05/01 11:22:29;;;;;;;12.10;6.60;;;;;;;23.74;30.59;100539.17;1779683;79;21338;-61
2021/05/01 11:25:34;;;;;;;5.08;2.40;;;;;;;23.87;30.29;100536.55;1803861;79;21471;-62
2021/05/01 11:28:44;;;;;;;10.58;8.28;;;;;;;23.99;29.98;100554.92;1803591;79;21880;-62
2021/05/01 11:31:52;;;;;;;7.37;2.95;;;;;;;24.03;28.93;100549.13;1801508;79;21331;-61
2021/05/01 11:35:16;;;;;;;4.67;3.02;;;;;;;24.03;28.56;100536.54;1803670;79;21350;-62
2021/05/01 11:38:35;;;;;;;22.87;11.68;;;;;;;24.08;28.90;100542.75;1796118;79;21181;-60
2021/05/01 11:41:40;;;;;;;16.35;7.10;;;;;;;24.15;29.28;100531.64;1787955;79;21185;-59
2021/05/01 11:44:47;;;;;;;96.95;24.37;;;;;;;24.24;28.69;100538.49;1789610;79;21328;-62
2021/05/01 11:48:05;;;;;;;6.05;3.40;;;;;;;24.32;28.74;100542.23;1774276;80;21367;-59
2021/05/01 11:51:11;;;;;;;6.70;2.80;;;;;;;24.50;28.86;100533.47;1801114;79;21344;-58
2021/05/01 11:54:35;;;;;;;3.30;2.50;;;;;;;24.76;28.66;100529.02;1783592;79;21722;-58
2021/05/01 11:57:57;;;;;;;4.90;2.50;;;;;;;24.96;27.70;100539.00;1798331;79;21204;-63
2021/05/01 12:01:02;;;;;;;4.47;2.35;;;;;;;25.03;27.55;100527.89;1791466;78;21660;-59
2021/05/01 12:04:10;;;;;;;3.62;2.35;;;;;;;24.97;25.82;100526.13;1793940;79;21174;-59
2021/05/01 12:07:15;;;;;;;2.83;2.20;;;;;;;24.85;25.95;100537.22;1793694;79;21328;-60
2021/05/01 12:10:26;;;;;;;6.17;2.05;;;;;;;24.73;26.31;100525.34;1789338;79;21225;-59
2021/05/01 12:13:47;;;;;;;3.70;2.52;;;;;;;24.80;26.22;100528.80;1788178;79;21145;-59
2021/05/01 12:16:54;;;;;;;3.30;2.20;;;;;;;24.88;26.14;100531.08;1777025;79;21350;-60
2021/05/01 12:19:59;;;;;;;3.62;2.50;;;;;;;24.92;25.80;100513.51;1789984;79;21276;-59
2021/05/01 12:23:18;;;;;;;6.85;3.20;;;;;;;25.05;26.01;100512.21;1795576;79;21331;-61
2021/05/01 12:26:49;;;;;;;4.58;2.60;;;;;;;25.08;26.13;100510.82;1790078;79;21264;-61
2021/05/01 12:29:57;;;;;;;5.90;2.58;;;;;;;25.11;25.52;100510.28;1803472;79;21228;-61
2021/05/01 12:33:01;;;;;;;4.08;2.50;;;;;;;25.11;25.80;100508.88;1801741;79;21390;-61
2021/05/01 12:36:12;;;;;;;5.33;2.27;;;;;;;25.26;25.77;100522.45;1802020;79;21228;-60
2021/05/01 12:39:17;;;;;;;4.20;2.80;;;;;;;25.40;25.82;100517.28;1803230;79;21177;-60
2021/05/01 12:42:38;;;;;;;4.92;2.22;;;;;;;25.43;24.87;100520.94;1801470;79;21903;-60
2021/05/01 12:45:44;;;;;;;3.17;2.25;;;;;;;25.47;25.16;100513.66;1803001;79;21216;-60
2021/05/01 12:48:57;;;;;;;3.50;2.50;;;;;;;25.55;25.68;100509.81;1804307;79;21528;-59
2021/05/01 12:52:15;;;;;;;3.72;2.75;;;;;;;25.52;25.75;100510.36;1803589;79;21339;-60
2021/05/01 12:55:21;;;;;;;3.65;2.80;;;;;;;25.57;25.35;100508.14;1803908;79;21363;-61
2021/05/01 12:58:26;;;;;;;5.33;3.65;;;;;;;25.59;24.98;100506.77;1804035;79;21355;-61
2021/05/01 13:01:34;;;;;;;3.70;2.58;;;;;;;25.64;25.14;100505.95;1795224;79;21370;-60
2021/05/01 13:04:43;;;;;;;4.55;2.00;;;;;;;25.72;25.17;100518.87;1775413;79;21360;-60
2021/05/01 13:07:53;;;;;;;5.65;2.40;;;;;;;25.72;24.92;100515.26;1769461;80;21715;-59
2021/05/01 13:11:01;;;;;;;19.77;13.00;;;;;;;25.71;24.94;100523.36;1769603;80;21201;-60
2021/05/01 13:14:28;;;;;;;59.93;38.78;;;;;;;25.58;24.94;100516.83;1769655;80;21348;-61
2021/05/01 13:17:39;;;;;;;25.50;15.60;;;;;;;25.46;25.05;100519.00;1769420;80;21332;-60
2021/05/01 13:20:45;;;;;;;7.42;5.45;;;;;;;25.30;25.60;100519.42;1768450;81;21233;-61
2021/05/01 13:23:51;;;;;;;7.85;5.33;;;;;;;25.16;25.54;100515.39;1769425;80;21347;-59
2021/05/01 13:27:01;;;;;;;4.28;2.83;;;;;;;25.10;25.63;100512.80;1768441;80;21730;-61
2021/05/01 13:30:13;;;;;;;5.33;2.40;;;;;;;25.05;25.67;100514.44;1768895;80;21379;-59
2021/05/01 13:33:18;;;;;;;3.70;2.27;;;;;;;25.08;25.88;100510.82;1768746;80;21217;-60
2021/05/01 13:36:25;;;;;;;3.58;2.55;;;;;;;25.11;25.63;100508.34;1705028;83;21212;-58
2021/05/01 13:39:34;;;;;;;4.83;2.55;;;;;;;25.16;26.14;100507.52;1725419;82;21380;-60
2021/05/01 13:42:45;;;;;;;4.03;2.40;;;;;;;25.14;25.99;100503.59;1704974;84;21320;-60
2021/05/01 13:45:53;;;;;;;5.67;2.20;;;;;;;25.18;26.30;100511.73;1690272;82;21301;-60
2021/05/01 13:49:00;;;;;;;2.98;2.40;;;;;;;25.41;26.02;100518.41;1720268;82;21197;-60
2021/05/01 13:52:05;;;;;;;4.10;2.45;;;;;;;25.83;25.52;100509.98;1723039;83;21208;-60
2021/05/01 13:55:37;;;;;;;4.22;2.00;;;;;;;26.36;24.61;100518.09;1707203;83;21237;-60
2021/05/01 13:58:42;;;;;;;5.60;2.45;;;;;;;26.75;24.24;100513.72;1735413;82;21347;-60
2021/05/01 14:01:56;;;;;;;5.20;2.42;;;;;;;26.88;23.84;100516.57;1746137;81;21311;-60
2021/05/01 14:05:02;;;;;;;3.92;2.30;;;;;;;26.82;24.75;100512.90;1735088;82;21284;-60
2021/05/01 14:08:07;;;;;;;3.65;2.30;;;;;;;26.89;24.48;100514.89;1749142;81;21204;-59
2021/05/01 14:11:13;;;;;;;4.03;2.37;;;;;;;27.02;23.87;100509.27;1765758;81;21232;-59
2021/05/01 14:14:19;;;;;;;4.50;2.90;;;;;;;26.98;23.70;100516.01;1759925;81;21351;-61
2021/05/01 14:17:24;;;;;;;2.17;1.98;;;;;;;26.83;23.71;100520.77;1758311;81;21260;-58
2021/05/01 14:20:31;;;;;;;4.53;2.10;;;;;;;26.70;23.72;100515.14;1762945;81;21363;-59
2021/05/01 14:23:37;;;;;;;4.65;2.30;;;;;;;26.57;23.98;100514.78;1765738;81;22007;-59
2021/05/01 14:26:43;;;;;;;6.20;2.40;;;;;;;26.44;24.27;100514.75;1765881;81;21699;-62
2021/05/01 14:30:06;;;;;;;4.05;2.47;;;;;;;26.61;24.49;100516.75;1759128;81;21377;-59